sensor_id;sensor_type;location;lat;lon;timestamp;P1;durP1;ratioP1;P2;durP2;ratioP2
75012;SDS011;63567;49.956;20.130;2023-08-21T00:01:17;14.27;;;12.97;;
75012;SDS011;63567;49.956;20.130;2023-08-21T00:03:42;14.90;;;13.43;;
75012;SDS011;63567;49.956;20.130;2023-08-21T00:06:07;15.57;;;14.17;;
75012;SDS011;63567;49.956;20.130;2023-08-21T00:08:33;16.17;;;14.77;;
75012;SDS011;63567;49.956;20.130;2023-08-21T00:10:58;13.93;;;12.63;;
75012;SDS011;63567;49.956;20.130;2023-08-21T00:13:23;14.87;;;13.57;;
75012;SDS011;63567;49.956;20.130;2023-08-21T00:15:48;14.27;;;12.97;;
75012;SDS011;63567;49.956;20.130;2023-08-21T00:18:14;14.98;;;13.73;;
75012;SDS011;63567;49.956;20.130;2023-08-21T00:20:39;14.68;;;13.38;;
75012;SDS011;63567;49.956;20.130;2023-08-21T00:23:06;14.57;;;13.20;;
75012;SDS011;63567;49.956;20.130;2023-08-21T00:25:31;14.50;;;13.20;;
75012;SDS011;63567;49.956;20.130;2023-08-21T00:27:58;14.40;;;13.10;;
75012;SDS011;63567;49.956;20.130;2023-08-21T00:30:23;13.97;;;12.67;;
75012;SDS011;63567;49.956;20.130;2023-08-21T00:32:48;15.13;;;13.83;;
75012;SDS011;63567;49.956;20.130;2023-08-21T00:35:13;15.70;;;14.23;;
75012;SDS011;63567;49.956;20.130;2023-08-21T00:37:39;15.10;;;13.57;;
75012;SDS011;63567;49.956;20.130;2023-08-21T00:40:04;15.70;;;14.23;;
75012;SDS011;63567;49.956;20.130;2023-08-21T00:42:30;17.45;;;16.05;;
75012;SDS011;63567;49.956;20.130;2023-08-21T00:44:55;14.93;;;13.60;;
75012;SDS011;63567;49.956;20.130;2023-08-21T00:47:20;17.57;;;16.17;;
75012;SDS011;63567;49.956;20.130;2023-08-21T00:49:46;15.27;;;13.93;;
75012;SDS011;63567;49.956;20.130;2023-08-21T00:52:12;17.38;;;15.88;;
75012;SDS011;63567;49.956;20.130;2023-08-21T00:54:39;14.23;;;12.88;;
75012;SDS011;63567;49.956;20.130;2023-08-21T00:57:05;14.68;;;13.38;;
75012;SDS011;63567;49.956;20.130;2023-08-21T00:59:30;13.85;;;12.57;;
75012;SDS011;63567;49.956;20.130;2023-08-21T01:01:56;15.05;;;13.65;;
75012;SDS011;63567;49.956;20.130;2023-08-21T01:04:21;14.90;;;13.60;;
75012;SDS011;63567;49.956;20.130;2023-08-21T01:06:50;14.80;;;13.43;;
75012;SDS011;63567;49.956;20.130;2023-08-21T01:14:59;14.27;;;12.98;;
75012;SDS011;63567;49.956;20.130;2023-08-21T01:17:26;13.60;;;12.30;;
75012;SDS011;63567;49.956;20.130;2023-08-21T01:19:53;15.93;;;14.63;;
75012;SDS011;63567;49.956;20.130;2023-08-21T01:22:20;14.32;;;13.02;;
75012;SDS011;63567;49.956;20.130;2023-08-21T01:24:45;13.70;;;12.40;;
75012;SDS011;63567;49.956;20.130;2023-08-21T01:27:10;14.23;;;13.03;;
75012;SDS011;63567;49.956;20.130;2023-08-21T01:29:38;15.68;;;14.25;;
75012;SDS011;63567;49.956;20.130;2023-08-21T01:32:06;14.65;;;13.35;;
75012;SDS011;63567;49.956;20.130;2023-08-21T01:34:35;14.65;;;13.35;;
75012;SDS011;63567;49.956;20.130;2023-08-21T01:37:03;14.02;;;12.73;;
75012;SDS011;63567;49.956;20.130;2023-08-21T01:39:29;15.00;;;13.55;;
75012;SDS011;63567;49.956;20.130;2023-08-21T01:41:54;17.05;;;15.65;;
75012;SDS011;63567;49.956;20.130;2023-08-21T01:44:21;14.77;;;13.38;;
75012;SDS011;63567;49.956;20.130;2023-08-21T01:46:46;14.27;;;12.97;;
75012;SDS011;63567;49.956;20.130;2023-08-21T01:49:11;14.67;;;13.27;;
75012;SDS011;63567;49.956;20.130;2023-08-21T01:51:36;14.23;;;12.93;;
75012;SDS011;63567;49.956;20.130;2023-08-21T01:54:02;14.30;;;12.90;;
75012;SDS011;63567;49.956;20.130;2023-08-21T01:56:27;15.55;;;14.15;;
75012;SDS011;63567;49.956;20.130;2023-08-21T01:58:52;16.53;;;15.13;;
75012;SDS011;63567;49.956;20.130;2023-08-21T02:01:18;13.80;;;12.53;;
75012;SDS011;63567;49.956;20.130;2023-08-21T02:03:43;17.80;;;16.30;;
75012;SDS011;63567;49.956;20.130;2023-08-21T02:06:09;14.23;;;12.93;;
75012;SDS011;63567;49.956;20.130;2023-08-21T02:08:34;13.70;;;12.40;;
75012;SDS011;63567;49.956;20.130;2023-08-21T02:10:59;16.60;;;15.07;;
75012;SDS011;63567;49.956;20.130;2023-08-21T02:13:25;14.48;;;13.07;;
75012;SDS011;63567;49.956;20.130;2023-08-21T02:15:50;14.23;;;12.93;;
75012;SDS011;63567;49.956;20.130;2023-08-21T02:18:16;13.53;;;12.13;;
75012;SDS011;63567;49.956;20.130;2023-08-21T02:20:41;16.25;;;14.88;;
75012;SDS011;63567;49.956;20.130;2023-08-21T02:23:07;13.77;;;12.57;;
75012;SDS011;63567;49.956;20.130;2023-08-21T02:25:32;13.60;;;12.30;;
75012;SDS011;63567;49.956;20.130;2023-08-21T02:27:57;16.13;;;14.75;;
75012;SDS011;63567;49.956;20.130;2023-08-21T02:30:23;15.05;;;13.60;;
75012;SDS011;63567;49.956;20.130;2023-08-21T02:32:52;13.73;;;12.43;;
75012;SDS011;63567;49.956;20.130;2023-08-21T02:35:17;14.15;;;12.85;;
75012;SDS011;63567;49.956;20.130;2023-08-21T02:37:42;13.57;;;12.27;;
75012;SDS011;63567;49.956;20.130;2023-08-21T02:40:08;13.93;;;12.73;;
75012;SDS011;63567;49.956;20.130;2023-08-21T02:42:33;15.10;;;13.70;;
75012;SDS011;63567;49.956;20.130;2023-08-21T02:44:59;13.90;;;12.60;;
75012;SDS011;63567;49.956;20.130;2023-08-21T02:47:24;13.20;;;11.90;;
75012;SDS011;63567;49.956;20.130;2023-08-21T02:49:49;13.23;;;12.03;;
75012;SDS011;63567;49.956;20.130;2023-08-21T02:52:15;13.77;;;12.45;;
75012;SDS011;63567;49.956;20.130;2023-08-21T02:54:40;13.53;;;12.27;;
75012;SDS011;63567;49.956;20.130;2023-08-21T02:57:05;13.53;;;12.30;;
75012;SDS011;63567;49.956;20.130;2023-08-21T02:59:30;14.40;;;13.00;;
75012;SDS011;63567;49.956;20.130;2023-08-21T03:01:56;20.40;;;18.80;;
75012;SDS011;63567;49.956;20.130;2023-08-21T03:04:21;14.10;;;12.80;;
75012;SDS011;63567;49.956;20.130;2023-08-21T03:06:48;13.15;;;11.95;;
75012;SDS011;63567;49.956;20.130;2023-08-21T03:09:13;13.63;;;12.23;;
75012;SDS011;63567;49.956;20.130;2023-08-21T03:11:38;15.87;;;14.47;;
75012;SDS011;63567;49.956;20.130;2023-08-21T03:14:03;15.03;;;13.57;;
75012;SDS011;63567;49.956;20.130;2023-08-21T03:16:29;15.27;;;13.93;;
75012;SDS011;63567;49.956;20.130;2023-08-21T03:18:55;14.47;;;13.07;;
75012;SDS011;63567;49.956;20.130;2023-08-21T03:21:25;15.18;;;13.77;;
75012;SDS011;63567;49.956;20.130;2023-08-21T03:23:51;15.02;;;13.73;;
75012;SDS011;63567;49.956;20.130;2023-08-21T03:26:19;15.10;;;13.70;;
75012;SDS011;63567;49.956;20.130;2023-08-21T03:28:44;15.82;;;14.32;;
75012;SDS011;63567;49.956;20.130;2023-08-21T03:31:10;14.40;;;13.10;;
75012;SDS011;63567;49.956;20.130;2023-08-21T03:33:35;16.70;;;15.13;;
75012;SDS011;63567;49.956;20.130;2023-08-21T03:36:00;14.70;;;13.23;;
75012;SDS011;63567;49.956;20.130;2023-08-21T03:38:25;14.70;;;13.37;;
75012;SDS011;63567;49.956;20.130;2023-08-21T03:40:51;14.80;;;13.50;;
75012;SDS011;63567;49.956;20.130;2023-08-21T03:43:16;14.00;;;12.70;;
75012;SDS011;63567;49.956;20.130;2023-08-21T03:45:41;15.00;;;13.50;;
75012;SDS011;63567;49.956;20.130;2023-08-21T03:48:06;15.70;;;14.20;;
75012;SDS011;63567;49.956;20.130;2023-08-21T03:50:32;15.17;;;13.67;;
75012;SDS011;63567;49.956;20.130;2023-08-21T03:52:57;14.57;;;13.23;;
75012;SDS011;63567;49.956;20.130;2023-08-21T03:55:22;15.67;;;14.17;;
75012;SDS011;63567;49.956;20.130;2023-08-21T03:57:47;15.33;;;13.83;;
75012;SDS011;63567;49.956;20.130;2023-08-21T04:00:13;15.17;;;13.77;;
75012;SDS011;63567;49.956;20.130;2023-08-21T04:02:38;14.82;;;13.32;;
75012;SDS011;63567;49.956;20.130;2023-08-21T04:05:04;14.90;;;13.47;;
75012;SDS011;63567;49.956;20.130;2023-08-21T04:07:29;14.98;;;13.50;;
75012;SDS011;63567;49.956;20.130;2023-08-21T04:09:54;15.20;;;13.80;;
75012;SDS011;63567;49.956;20.130;2023-08-21T04:12:20;14.80;;;13.37;;
75012;SDS011;63567;49.956;20.130;2023-08-21T04:14:45;14.87;;;13.47;;
75012;SDS011;63567;49.956;20.130;2023-08-21T04:17:10;15.73;;;14.33;;
75012;SDS011;63567;49.956;20.130;2023-08-21T04:19:35;14.83;;;13.43;;
75012;SDS011;63567;49.956;20.130;2023-08-21T04:22:01;15.07;;;13.57;;
75012;SDS011;63567;49.956;20.130;2023-08-21T04:24:26;14.50;;;13.10;;
75012;SDS011;63567;49.956;20.130;2023-08-21T04:26:52;15.23;;;13.67;;
75012;SDS011;63567;49.956;20.130;2023-08-21T04:29:17;14.80;;;13.17;;
75012;SDS011;63567;49.956;20.130;2023-08-21T04:31:42;14.43;;;13.03;;
75012;SDS011;63567;49.956;20.130;2023-08-21T04:34:07;14.47;;;13.07;;
75012;SDS011;63567;49.956;20.130;2023-08-21T04:36:32;15.63;;;13.83;;
75012;SDS011;63567;49.956;20.130;2023-08-21T04:38:58;14.73;;;13.33;;
75012;SDS011;63567;49.956;20.130;2023-08-21T04:41:23;14.60;;;13.10;;
75012;SDS011;63567;49.956;20.130;2023-08-21T04:43:48;14.43;;;13.03;;
75012;SDS011;63567;49.956;20.130;2023-08-21T04:46:13;15.00;;;13.50;;
75012;SDS011;63567;49.956;20.130;2023-08-21T04:48:39;14.90;;;13.50;;
75012;SDS011;63567;49.956;20.130;2023-08-21T04:51:04;14.07;;;12.67;;
75012;SDS011;63567;49.956;20.130;2023-08-21T04:53:29;15.00;;;13.50;;
75012;SDS011;63567;49.956;20.130;2023-08-21T04:55:55;14.95;;;13.55;;
75012;SDS011;63567;49.956;20.130;2023-08-21T04:58:23;14.43;;;13.13;;
75012;SDS011;63567;49.956;20.130;2023-08-21T05:00:48;14.23;;;12.83;;
75012;SDS011;63567;49.956;20.130;2023-08-21T05:03:13;14.23;;;12.93;;
75012;SDS011;63567;49.956;20.130;2023-08-21T05:05:38;15.27;;;13.73;;
75012;SDS011;63567;49.956;20.130;2023-08-21T05:08:04;15.07;;;13.67;;
75012;SDS011;63567;49.956;20.130;2023-08-21T05:10:29;15.30;;;13.80;;
75012;SDS011;63567;49.956;20.130;2023-08-21T05:12:56;14.80;;;13.37;;
75012;SDS011;63567;49.956;20.130;2023-08-21T05:15:21;15.30;;;13.82;;
75012;SDS011;63567;49.956;20.130;2023-08-21T05:17:47;15.87;;;14.37;;
75012;SDS011;63567;49.956;20.130;2023-08-21T05:20:12;14.73;;;13.23;;
75012;SDS011;63567;49.956;20.130;2023-08-21T05:22:39;17.25;;;15.75;;
75012;SDS011;63567;49.956;20.130;2023-08-21T05:25:05;15.07;;;13.68;;
75012;SDS011;63567;49.956;20.130;2023-08-21T05:27:30;18.05;;;16.45;;
75012;SDS011;63567;49.956;20.130;2023-08-21T05:29:56;14.53;;;13.10;;
75012;SDS011;63567;49.956;20.130;2023-08-21T05:32:21;15.00;;;13.50;;
75012;SDS011;63567;49.956;20.130;2023-08-21T05:34:46;15.00;;;13.63;;
75012;SDS011;63567;49.956;20.130;2023-08-21T05:37:12;14.20;;;12.80;;
75012;SDS011;63567;49.956;20.130;2023-08-21T05:39:37;14.60;;;13.20;;
75012;SDS011;63567;49.956;20.130;2023-08-21T05:42:02;14.00;;;12.60;;
75012;SDS011;63567;49.956;20.130;2023-08-21T05:44:27;14.70;;;13.30;;
75012;SDS011;63567;49.956;20.130;2023-08-21T05:46:53;14.07;;;12.77;;
75012;SDS011;63567;49.956;20.130;2023-08-21T05:49:18;14.57;;;13.20;;
75012;SDS011;63567;49.956;20.130;2023-08-21T05:51:44;13.77;;;12.53;;
75012;SDS011;63567;49.956;20.130;2023-08-21T05:54:09;15.13;;;13.70;;
75012;SDS011;63567;49.956;20.130;2023-08-21T05:56:35;14.67;;;13.37;;
75012;SDS011;63567;49.956;20.130;2023-08-21T05:59:00;14.93;;;13.52;;
75012;SDS011;63567;49.956;20.130;2023-08-21T06:01:25;14.40;;;13.10;;
75012;SDS011;63567;49.956;20.130;2023-08-21T06:03:50;16.70;;;14.33;;
75012;SDS011;63567;49.956;20.130;2023-08-21T06:06:17;17.85;;;16.30;;
75012;SDS011;63567;49.956;20.130;2023-08-21T06:08:42;14.43;;;13.13;;
75012;SDS011;63567;49.956;20.130;2023-08-21T06:11:07;14.17;;;12.83;;
75012;SDS011;63567;49.956;20.130;2023-08-21T06:13:32;15.70;;;14.30;;
75012;SDS011;63567;49.956;20.130;2023-08-21T06:15:58;14.67;;;13.27;;
75012;SDS011;63567;49.956;20.130;2023-08-21T06:18:23;16.23;;;14.73;;
75012;SDS011;63567;49.956;20.130;2023-08-21T06:20:48;14.77;;;13.43;;
75012;SDS011;63567;49.956;20.130;2023-08-21T06:23:18;14.48;;;13.18;;
75012;SDS011;63567;49.956;20.130;2023-08-21T06:25:44;15.60;;;14.18;;
75012;SDS011;63567;49.956;20.130;2023-08-21T06:28:09;15.45;;;14.13;;
75012;SDS011;63567;49.956;20.130;2023-08-21T06:30:35;15.32;;;13.93;;
75012;SDS011;63567;49.956;20.130;2023-08-21T06:33:00;14.67;;;13.17;;
75012;SDS011;63567;49.956;20.130;2023-08-21T06:35:25;15.43;;;14.03;;
75012;SDS011;63567;49.956;20.130;2023-08-21T06:37:50;14.87;;;13.57;;
75012;SDS011;63567;49.956;20.130;2023-08-21T06:40:17;14.47;;;13.17;;
75012;SDS011;63567;49.956;20.130;2023-08-21T06:42:42;19.00;;;17.50;;
75012;SDS011;63567;49.956;20.130;2023-08-21T06:45:08;14.52;;;13.27;;
75012;SDS011;63567;49.956;20.130;2023-08-21T06:47:33;14.15;;;12.85;;
75012;SDS011;63567;49.956;20.130;2023-08-21T06:49:58;14.57;;;13.27;;
75012;SDS011;63567;49.956;20.130;2023-08-21T06:52:25;19.10;;;17.60;;
75012;SDS011;63567;49.956;20.130;2023-08-21T06:54:51;14.98;;;13.70;;
75012;SDS011;63567;49.956;20.130;2023-08-21T06:57:16;14.57;;;13.17;;
75012;SDS011;63567;49.956;20.130;2023-08-21T06:59:41;15.33;;;14.03;;
75012;SDS011;63567;49.956;20.130;2023-08-21T07:02:06;15.00;;;13.60;;
75012;SDS011;63567;49.956;20.130;2023-08-21T07:04:32;14.83;;;13.53;;
75012;SDS011;63567;49.956;20.130;2023-08-21T07:07:00;14.98;;;13.63;;
75012;SDS011;63567;49.956;20.130;2023-08-21T07:09:26;14.45;;;13.15;;
75012;SDS011;63567;49.956;20.130;2023-08-21T07:11:51;14.33;;;13.03;;
75012;SDS011;63567;49.956;20.130;2023-08-21T07:14:16;14.77;;;13.57;;
75012;SDS011;63567;49.956;20.130;2023-08-21T07:16:42;13.75;;;12.50;;
75012;SDS011;63567;49.956;20.130;2023-08-21T07:19:08;14.13;;;12.82;;
75012;SDS011;63567;49.956;20.130;2023-08-21T07:21:33;14.38;;;13.18;;
75012;SDS011;63567;49.956;20.130;2023-08-21T07:24:02;15.27;;;14.02;;
75012;SDS011;63567;49.956;20.130;2023-08-21T07:26:28;14.75;;;13.52;;
75012;SDS011;63567;49.956;20.130;2023-08-21T07:28:53;14.95;;;13.65;;
75012;SDS011;63567;49.956;20.130;2023-08-21T07:31:19;14.47;;;13.17;;
75012;SDS011;63567;49.956;20.130;2023-08-21T07:33:44;14.70;;;13.50;;
75012;SDS011;63567;49.956;20.130;2023-08-21T07:36:09;15.30;;;14.03;;
75012;SDS011;63567;49.956;20.130;2023-08-21T07:38:39;13.93;;;12.73;;
75012;SDS011;63567;49.956;20.130;2023-08-21T07:41:05;15.53;;;14.20;;
75012;SDS011;63567;49.956;20.130;2023-08-21T07:43:32;18.30;;;17.00;;
75012;SDS011;63567;49.956;20.130;2023-08-21T07:46:01;14.68;;;13.57;;
75012;SDS011;63567;49.956;20.130;2023-08-21T07:48:30;18.40;;;17.05;;
75012;SDS011;63567;49.956;20.130;2023-08-21T07:50:56;15.80;;;14.50;;
75012;SDS011;63567;49.956;20.130;2023-08-21T07:53:22;16.87;;;15.53;;
75012;SDS011;63567;49.956;20.130;2023-08-21T07:55:48;15.70;;;14.43;;
75012;SDS011;63567;49.956;20.130;2023-08-21T07:58:13;15.85;;;14.65;;
75012;SDS011;63567;49.956;20.130;2023-08-21T08:00:38;16.87;;;15.50;;
75012;SDS011;63567;49.956;20.130;2023-08-21T08:03:04;17.00;;;15.77;;
75012;SDS011;63567;49.956;20.130;2023-08-21T08:05:30;16.50;;;15.13;;
75012;SDS011;63567;49.956;20.130;2023-08-21T08:07:56;21.27;;;19.65;;
75012;SDS011;63567;49.956;20.130;2023-08-21T08:10:21;22.73;;;21.27;;
75012;SDS011;63567;49.956;20.130;2023-08-21T08:12:46;16.43;;;15.07;;
75012;SDS011;63567;49.956;20.130;2023-08-21T08:15:11;15.53;;;14.23;;
75012;SDS011;63567;49.956;20.130;2023-08-21T08:17:37;15.40;;;14.20;;
75012;SDS011;63567;49.956;20.130;2023-08-21T08:20:02;15.70;;;14.40;;
75012;SDS011;63567;49.956;20.130;2023-08-21T08:22:27;15.23;;;13.93;;
75012;SDS011;63567;49.956;20.130;2023-08-21T08:24:53;14.27;;;13.07;;
75012;SDS011;63567;49.956;20.130;2023-08-21T08:27:18;16.33;;;15.13;;
75012;SDS011;63567;49.956;20.130;2023-08-21T08:29:43;15.43;;;14.20;;
75012;SDS011;63567;49.956;20.130;2023-08-21T08:32:08;15.40;;;14.20;;
75012;SDS011;63567;49.956;20.130;2023-08-21T08:34:34;15.77;;;14.57;;
75012;SDS011;63567;49.956;20.130;2023-08-21T08:36:59;15.23;;;14.00;;
75012;SDS011;63567;49.956;20.130;2023-08-21T08:39:24;15.63;;;14.30;;
75012;SDS011;63567;49.956;20.130;2023-08-21T08:41:59;15.95;;;14.55;;
75012;SDS011;63567;49.956;20.130;2023-08-21T08:44:28;16.98;;;15.57;;
75012;SDS011;63567;49.956;20.130;2023-08-21T08:46:55;18.88;;;17.38;;
75012;SDS011;63567;49.956;20.130;2023-08-21T08:49:21;17.02;;;15.63;;
75012;SDS011;63567;49.956;20.130;2023-08-21T08:51:47;17.40;;;15.80;;
75012;SDS011;63567;49.956;20.130;2023-08-21T08:54:19;16.98;;;15.68;;
75012;SDS011;63567;49.956;20.130;2023-08-21T08:56:45;17.60;;;16.10;;
75012;SDS011;63567;49.956;20.130;2023-08-21T08:59:10;18.00;;;16.53;;
75012;SDS011;63567;49.956;20.130;2023-08-21T09:01:36;17.83;;;16.33;;
75012;SDS011;63567;49.956;20.130;2023-08-21T09:04:02;17.38;;;15.98;;
75012;SDS011;63567;49.956;20.130;2023-08-21T09:06:28;18.88;;;17.27;;
75012;SDS011;63567;49.956;20.130;2023-08-21T09:08:54;23.80;;;22.13;;
75012;SDS011;63567;49.956;20.130;2023-08-21T09:11:20;18.42;;;16.83;;
75012;SDS011;63567;49.956;20.130;2023-08-21T09:13:45;18.48;;;16.98;;
75012;SDS011;63567;49.956;20.130;2023-08-21T09:16:13;19.83;;;18.13;;
75012;SDS011;63567;49.956;20.130;2023-08-21T09:18:42;19.45;;;17.67;;
75012;SDS011;63567;49.956;20.130;2023-08-21T09:21:11;20.80;;;18.75;;
75012;SDS011;63567;49.956;20.130;2023-08-21T09:23:38;22.65;;;20.48;;
75012;SDS011;63567;49.956;20.130;2023-08-21T09:26:03;23.97;;;21.67;;
75012;SDS011;63567;49.956;20.130;2023-08-21T09:28:29;25.27;;;22.70;;
75012;SDS011;63567;49.956;20.130;2023-08-21T09:30:56;25.23;;;22.65;;
75012;SDS011;63567;49.956;20.130;2023-08-21T09:33:23;24.83;;;22.35;;
75012;SDS011;63567;49.956;20.130;2023-08-21T09:35:52;23.58;;;21.17;;
75012;SDS011;63567;49.956;20.130;2023-08-21T09:38:18;23.23;;;21.02;;
75012;SDS011;63567;49.956;20.130;2023-08-21T09:40:49;21.33;;;19.08;;
75012;SDS011;63567;49.956;20.130;2023-08-21T09:43:17;21.48;;;19.38;;
75012;SDS011;63567;49.956;20.130;2023-08-21T09:45:46;20.42;;;18.33;;
75012;SDS011;63567;49.956;20.130;2023-08-21T09:48:12;19.75;;;17.95;;
75012;SDS011;63567;49.956;20.130;2023-08-21T09:50:38;19.80;;;17.92;;
75012;SDS011;63567;49.956;20.130;2023-08-21T09:53:06;19.58;;;17.58;;
75012;SDS011;63567;49.956;20.130;2023-08-21T09:55:32;24.17;;;22.10;;
75012;SDS011;63567;49.956;20.130;2023-08-21T09:58:01;19.92;;;17.83;;
75012;SDS011;63567;49.956;20.130;2023-08-21T10:00:33;19.73;;;17.83;;
75012;SDS011;63567;49.956;20.130;2023-08-21T10:03:01;18.17;;;16.38;;
75012;SDS011;63567;49.956;20.130;2023-08-21T10:05:28;19.50;;;17.70;;
75012;SDS011;63567;49.956;20.130;2023-08-21T10:07:55;19.88;;;18.02;;
75012;SDS011;63567;49.956;20.130;2023-08-21T10:10:21;20.02;;;18.05;;
75012;SDS011;63567;49.956;20.130;2023-08-21T10:12:47;19.48;;;17.58;;
75012;SDS011;63567;49.956;20.130;2023-08-21T10:15:13;19.83;;;17.88;;
75012;SDS011;63567;49.956;20.130;2023-08-21T10:17:41;20.45;;;18.42;;
75012;SDS011;63567;49.956;20.130;2023-08-21T10:20:08;21.30;;;19.23;;
75012;SDS011;63567;49.956;20.130;2023-08-21T10:22:48;20.95;;;19.05;;
75012;SDS011;63567;49.956;20.130;2023-08-21T10:25:15;19.77;;;18.00;;
75012;SDS011;63567;49.956;20.130;2023-08-21T10:27:48;23.80;;;21.63;;
75012;SDS011;63567;49.956;20.130;2023-08-21T10:30:15;21.05;;;19.15;;
75012;SDS011;63567;49.956;20.130;2023-08-21T10:32:46;20.92;;;19.00;;
75012;SDS011;63567;49.956;20.130;2023-08-21T10:35:17;20.40;;;18.40;;
75012;SDS011;63567;49.956;20.130;2023-08-21T10:40:33;21.95;;;19.85;;
75012;SDS011;63567;49.956;20.130;2023-08-21T10:43:00;20.35;;;18.33;;
75012;SDS011;63567;49.956;20.130;2023-08-21T10:45:25;25.85;;;23.58;;
75012;SDS011;63567;49.956;20.130;2023-08-21T10:47:51;21.25;;;19.25;;
75012;SDS011;63567;49.956;20.130;2023-08-21T10:50:16;23.17;;;20.87;;
75012;SDS011;63567;49.956;20.130;2023-08-21T10:52:42;23.55;;;21.38;;
75012;SDS011;63567;49.956;20.130;2023-08-21T10:55:10;22.55;;;20.33;;
75012;SDS011;63567;49.956;20.130;2023-08-21T10:57:37;25.48;;;23.38;;
75012;SDS011;63567;49.956;20.130;2023-08-21T11:00:07;22.52;;;20.50;;
75012;SDS011;63567;49.956;20.130;2023-08-21T11:02:37;21.33;;;19.33;;
75012;SDS011;63567;49.956;20.130;2023-08-21T11:05:05;22.33;;;20.20;;
75012;SDS011;63567;49.956;20.130;2023-08-21T11:07:36;23.65;;;21.55;;
75012;SDS011;63567;49.956;20.130;2023-08-21T11:10:13;24.15;;;21.95;;
75012;SDS011;63567;49.956;20.130;2023-08-21T11:12:52;35.35;;;32.75;;
75012;SDS011;63567;49.956;20.130;2023-08-21T11:15:22;33.55;;;31.15;;
75012;SDS011;63567;49.956;20.130;2023-08-21T11:18:02;35.50;;;32.88;;
75012;SDS011;63567;49.956;20.130;2023-08-21T11:20:31;28.42;;;25.88;;
75012;SDS011;63567;49.956;20.130;2023-08-21T11:22:58;27.25;;;24.95;;
75012;SDS011;63567;49.956;20.130;2023-08-21T11:25:24;27.48;;;25.08;;
75012;SDS011;63567;49.956;20.130;2023-08-21T11:27:49;28.10;;;25.57;;
75012;SDS011;63567;49.956;20.130;2023-08-21T11:30:14;24.80;;;22.63;;
75012;SDS011;63567;49.956;20.130;2023-08-21T11:32:41;27.13;;;24.45;;
75012;SDS011;63567;49.956;20.130;2023-08-21T11:35:06;27.50;;;25.23;;
75012;SDS011;63567;49.956;20.130;2023-08-21T11:37:31;30.58;;;28.17;;
75012;SDS011;63567;49.956;20.130;2023-08-21T11:39:57;30.43;;;27.73;;
75012;SDS011;63567;49.956;20.130;2023-08-21T11:42:32;31.30;;;28.75;;
75012;SDS011;63567;49.956;20.130;2023-08-21T11:44:59;28.77;;;26.23;;
75012;SDS011;63567;49.956;20.130;2023-08-21T11:47:30;31.20;;;28.55;;
75012;SDS011;63567;49.956;20.130;2023-08-21T11:49:56;29.15;;;26.45;;
75012;SDS011;63567;49.956;20.130;2023-08-21T11:52:22;27.83;;;25.33;;
75012;SDS011;63567;49.956;20.130;2023-08-21T11:54:51;41.15;;;38.35;;
75012;SDS011;63567;49.956;20.130;2023-08-21T11:57:18;37.78;;;34.95;;
75012;SDS011;63567;49.956;20.130;2023-08-21T11:59:54;27.73;;;25.42;;
75012;SDS011;63567;49.956;20.130;2023-08-21T12:02:23;27.30;;;25.13;;
75012;SDS011;63567;49.956;20.130;2023-08-21T12:04:54;39.17;;;36.45;;
75012;SDS011;63567;49.956;20.130;2023-08-21T12:07:25;32.92;;;30.27;;
75012;SDS011;63567;49.956;20.130;2023-08-21T12:09:51;31.40;;;28.80;;
75012;SDS011;63567;49.956;20.130;2023-08-21T12:12:16;30.33;;;27.80;;
75012;SDS011;63567;49.956;20.130;2023-08-21T12:14:41;40.87;;;38.27;;
75012;SDS011;63567;49.956;20.130;2023-08-21T12:17:06;34.27;;;31.90;;
75012;SDS011;63567;49.956;20.130;2023-08-21T12:19:32;33.13;;;30.60;;
75012;SDS011;63567;49.956;20.130;2023-08-21T12:21:57;38.17;;;35.77;;
75012;SDS011;63567;49.956;20.130;2023-08-21T12:24:23;32.05;;;29.52;;
75012;SDS011;63567;49.956;20.130;2023-08-21T12:26:48;28.63;;;26.42;;
75012;SDS011;63567;49.956;20.130;2023-08-21T12:29:14;33.53;;;31.27;;
75012;SDS011;63567;49.956;20.130;2023-08-21T12:31:39;29.97;;;27.67;;
75012;SDS011;63567;49.956;20.130;2023-08-21T12:34:04;33.50;;;31.27;;
75012;SDS011;63567;49.956;20.130;2023-08-21T12:36:29;33.23;;;30.93;;
75012;SDS011;63567;49.956;20.130;2023-08-21T12:38:55;32.60;;;30.50;;
75012;SDS011;63567;49.956;20.130;2023-08-21T12:41:20;32.27;;;30.07;;
75012;SDS011;63567;49.956;20.130;2023-08-21T12:43:45;30.07;;;27.90;;
75012;SDS011;63567;49.956;20.130;2023-08-21T12:46:10;31.33;;;29.17;;
75012;SDS011;63567;49.956;20.130;2023-08-21T12:48:36;31.60;;;29.43;;
75012;SDS011;63567;49.956;20.130;2023-08-21T12:51:01;39.17;;;36.77;;
75012;SDS011;63567;49.956;20.130;2023-08-21T12:53:27;27.75;;;25.73;;
75012;SDS011;63567;49.956;20.130;2023-08-21T12:55:52;40.87;;;38.57;;
75012;SDS011;63567;49.956;20.130;2023-08-21T12:58:18;29.05;;;27.15;;
75012;SDS011;63567;49.956;20.130;2023-08-21T13:00:44;28.83;;;26.70;;
75012;SDS011;63567;49.956;20.130;2023-08-21T13:03:09;28.97;;;26.97;;
75012;SDS011;63567;49.956;20.130;2023-08-21T13:05:34;27.87;;;25.77;;
75012;SDS011;63567;49.956;20.130;2023-08-21T13:07:59;28.27;;;26.27;;
75012;SDS011;63567;49.956;20.130;2023-08-21T13:10:25;29.33;;;27.23;;
75012;SDS011;63567;49.956;20.130;2023-08-21T13:12:50;28.90;;;26.80;;
75012;SDS011;63567;49.956;20.130;2023-08-21T13:15:16;30.85;;;28.60;;
75012;SDS011;63567;49.956;20.130;2023-08-21T13:17:42;35.03;;;32.63;;
75012;SDS011;63567;49.956;20.130;2023-08-21T13:20:08;38.05;;;35.55;;
75012;SDS011;63567;49.956;20.130;2023-08-21T13:22:44;31.95;;;29.55;;
75012;SDS011;63567;49.956;20.130;2023-08-21T13:25:13;34.17;;;31.67;;
75012;SDS011;63567;49.956;20.130;2023-08-21T13:27:40;33.20;;;30.80;;
75012;SDS011;63567;49.956;20.130;2023-08-21T13:30:05;38.97;;;36.27;;
75012;SDS011;63567;49.956;20.130;2023-08-21T13:32:31;28.40;;;26.13;;
75012;SDS011;63567;49.956;20.130;2023-08-21T13:34:56;27.37;;;25.37;;
75012;SDS011;63567;49.956;20.130;2023-08-21T13:37:22;29.83;;;27.57;;
75012;SDS011;63567;49.956;20.130;2023-08-21T13:39:48;28.38;;;25.95;;
75012;SDS011;63567;49.956;20.130;2023-08-21T13:42:13;25.93;;;24.00;;
75012;SDS011;63567;49.956;20.130;2023-08-21T13:44:39;29.40;;;27.23;;
75012;SDS011;63567;49.956;20.130;2023-08-21T13:47:04;26.00;;;23.90;;
75012;SDS011;63567;49.956;20.130;2023-08-21T13:49:30;26.15;;;24.05;;
75012;SDS011;63567;49.956;20.130;2023-08-21T13:51:55;30.17;;;27.87;;
75012;SDS011;63567;49.956;20.130;2023-08-21T13:54:20;27.00;;;24.80;;
75012;SDS011;63567;49.956;20.130;2023-08-21T13:56:45;28.67;;;26.50;;
75012;SDS011;63567;49.956;20.130;2023-08-21T13:59:11;27.77;;;25.67;;
75012;SDS011;63567;49.956;20.130;2023-08-21T14:01:36;23.90;;;21.83;;
75012;SDS011;63567;49.956;20.130;2023-08-21T14:04:01;27.67;;;25.37;;
75012;SDS011;63567;49.956;20.130;2023-08-21T14:06:27;26.45;;;24.48;;
75012;SDS011;63567;49.956;20.130;2023-08-21T14:08:54;30.75;;;28.23;;
75012;SDS011;63567;49.956;20.130;2023-08-21T14:11:19;27.47;;;25.43;;